sensor_id;sensor_type;location;lat;lon;timestamp;P1;durP1;ratioP1;P2;durP2;ratioP2
22034;SDS011;11181;51.002;4.356;2024-03-08T00:02:17;21.17;;;12.20;;
22034;SDS011;11181;51.002;4.356;2024-03-08T00:04:44;25.37;;;15.00;;
22034;SDS011;11181;51.002;4.356;2024-03-08T00:07:11;22.60;;;13.90;;
22034;SDS011;11181;51.002;4.356;2024-03-08T00:09:38;24.53;;;13.50;;
22034;SDS011;11181;51.002;4.356;2024-03-08T00:12:05;26.40;;;14.70;;
22034;SDS011;11181;51.002;4.356;2024-03-08T00:14:32;23.67;;;13.63;;
22034;SDS011;11181;51.002;4.356;2024-03-08T00:17:00;24.07;;;13.13;;
22034;SDS011;11181;51.002;4.356;2024-03-08T00:19:29;24.27;;;13.07;;
22034;SDS011;11181;51.002;4.356;2024-03-08T00:21:56;25.10;;;13.03;;
22034;SDS011;11181;51.002;4.356;2024-03-08T00:24:23;26.63;;;15.93;;
22034;SDS011;11181;51.002;4.356;2024-03-08T00:26:50;26.10;;;15.43;;
22034;SDS011;11181;51.002;4.356;2024-03-08T00:29:18;20.90;;;13.13;;
22034;SDS011;11181;51.002;4.356;2024-03-08T00:31:45;25.33;;;14.90;;
22034;SDS011;11181;51.002;4.356;2024-03-08T00:34:12;28.67;;;16.27;;
22034;SDS011;11181;51.002;4.356;2024-03-08T00:36:41;23.87;;;14.07;;
22034;SDS011;11181;51.002;4.356;2024-03-08T00:39:09;27.93;;;13.67;;
22034;SDS011;11181;51.002;4.356;2024-03-08T00:41:37;24.33;;;13.80;;
22034;SDS011;11181;51.002;4.356;2024-03-08T00:44:04;25.77;;;14.40;;
22034;SDS011;11181;51.002;4.356;2024-03-08T00:46:31;28.13;;;14.50;;
22034;SDS011;11181;51.002;4.356;2024-03-08T00:48:59;30.03;;;15.40;;
22034;SDS011;11181;51.002;4.356;2024-03-08T00:51:26;26.70;;;13.97;;
22034;SDS011;11181;51.002;4.356;2024-03-08T00:53:54;30.87;;;16.57;;
22034;SDS011;11181;51.002;4.356;2024-03-08T00:56:21;28.03;;;16.20;;
22034;SDS011;11181;51.002;4.356;2024-03-08T00:58:50;26.43;;;14.87;;
22034;SDS011;11181;51.002;4.356;2024-03-08T01:01:18;25.17;;;14.93;;
22034;SDS011;11181;51.002;4.356;2024-03-08T01:03:45;26.47;;;15.83;;
22034;SDS011;11181;51.002;4.356;2024-03-08T01:06:13;31.10;;;15.80;;
22034;SDS011;11181;51.002;4.356;2024-03-08T01:08:41;26.63;;;16.80;;
22034;SDS011;11181;51.002;4.356;2024-03-08T01:11:09;27.43;;;15.97;;
22034;SDS011;11181;51.002;4.356;2024-03-08T01:13:36;29.03;;;16.50;;
22034;SDS011;11181;51.002;4.356;2024-03-08T01:16:04;27.23;;;15.43;;
22034;SDS011;11181;51.002;4.356;2024-03-08T01:18:31;29.07;;;16.20;;
22034;SDS011;11181;51.002;4.356;2024-03-08T01:20:58;27.27;;;15.00;;
22034;SDS011;11181;51.002;4.356;2024-03-08T01:23:25;25.93;;;15.83;;
22034;SDS011;11181;51.002;4.356;2024-03-08T01:25:52;29.43;;;15.60;;
22034;SDS011;11181;51.002;4.356;2024-03-08T01:28:23;27.83;;;15.43;;
22034;SDS011;11181;51.002;4.356;2024-03-08T01:30:50;28.03;;;15.20;;
22034;SDS011;11181;51.002;4.356;2024-03-08T01:33:20;27.20;;;15.70;;
22034;SDS011;11181;51.002;4.356;2024-03-08T01:35:48;33.30;;;16.63;;
22034;SDS011;11181;51.002;4.356;2024-03-08T01:38:15;29.17;;;16.23;;
22034;SDS011;11181;51.002;4.356;2024-03-08T01:40:42;25.90;;;15.67;;
22034;SDS011;11181;51.002;4.356;2024-03-08T01:43:16;25.50;;;15.60;;
22034;SDS011;11181;51.002;4.356;2024-03-08T01:45:46;25.70;;;15.23;;
22034;SDS011;11181;51.002;4.356;2024-03-08T01:48:13;29.67;;;16.57;;
22034;SDS011;11181;51.002;4.356;2024-03-08T01:50:41;25.97;;;16.30;;
22034;SDS011;11181;51.002;4.356;2024-03-08T01:53:09;25.77;;;16.00;;
22034;SDS011;11181;51.002;4.356;2024-03-08T01:55:40;24.33;;;16.20;;
22034;SDS011;11181;51.002;4.356;2024-03-08T01:58:08;27.13;;;15.60;;
22034;SDS011;11181;51.002;4.356;2024-03-08T02:00:36;28.17;;;16.43;;
22034;SDS011;11181;51.002;4.356;2024-03-08T02:03:07;28.70;;;16.03;;
22034;SDS011;11181;51.002;4.356;2024-03-08T02:05:35;25.53;;;15.50;;
22034;SDS011;11181;51.002;4.356;2024-03-08T02:08:03;25.43;;;15.00;;
22034;SDS011;11181;51.002;4.356;2024-03-08T02:10:33;27.93;;;15.20;;
22034;SDS011;11181;51.002;4.356;2024-03-08T02:13:00;26.97;;;15.90;;
22034;SDS011;11181;51.002;4.356;2024-03-08T02:18:17;27.77;;;16.23;;
22034;SDS011;11181;51.002;4.356;2024-03-08T02:20:46;23.53;;;16.00;;
22034;SDS011;11181;51.002;4.356;2024-03-08T02:23:13;26.60;;;16.37;;
22034;SDS011;11181;51.002;4.356;2024-03-08T02:25:40;34.93;;;16.97;;
22034;SDS011;11181;51.002;4.356;2024-03-08T02:28:09;28.77;;;15.97;;
22034;SDS011;11181;51.002;4.356;2024-03-08T02:30:36;25.77;;;15.57;;
22034;SDS011;11181;51.002;4.356;2024-03-08T02:33:03;24.20;;;14.87;;
22034;SDS011;11181;51.002;4.356;2024-03-08T02:35:30;24.47;;;15.33;;
22034;SDS011;11181;51.002;4.356;2024-03-08T02:37:59;24.37;;;14.73;;
22034;SDS011;11181;51.002;4.356;2024-03-08T02:40:26;23.50;;;15.53;;
22034;SDS011;11181;51.002;4.356;2024-03-08T02:42:53;26.73;;;16.07;;
22034;SDS011;11181;51.002;4.356;2024-03-08T02:45:20;25.03;;;15.87;;
22034;SDS011;11181;51.002;4.356;2024-03-08T02:47:47;24.87;;;15.07;;
22034;SDS011;11181;51.002;4.356;2024-03-08T02:50:15;26.40;;;15.87;;
22034;SDS011;11181;51.002;4.356;2024-03-08T02:52:42;32.03;;;16.40;;
22034;SDS011;11181;51.002;4.356;2024-03-08T02:55:12;27.30;;;17.27;;
22034;SDS011;11181;51.002;4.356;2024-03-08T02:57:41;23.57;;;14.77;;
22034;SDS011;11181;51.002;4.356;2024-03-08T03:00:09;20.47;;;14.43;;
22034;SDS011;11181;51.002;4.356;2024-03-08T03:02:38;25.90;;;16.83;;
22034;SDS011;11181;51.002;4.356;2024-03-08T03:05:05;24.70;;;15.53;;
22034;SDS011;11181;51.002;4.356;2024-03-08T03:07:34;23.07;;;15.80;;
22034;SDS011;11181;51.002;4.356;2024-03-08T03:10:02;24.07;;;14.83;;
22034;SDS011;11181;51.002;4.356;2024-03-08T03:12:31;22.47;;;14.73;;
22034;SDS011;11181;51.002;4.356;2024-03-08T03:14:58;24.80;;;15.70;;
22034;SDS011;11181;51.002;4.356;2024-03-08T03:17:25;24.43;;;15.83;;
22034;SDS011;11181;51.002;4.356;2024-03-08T03:19:53;27.83;;;16.23;;
22034;SDS011;11181;51.002;4.356;2024-03-08T03:22:20;25.30;;;16.80;;
22034;SDS011;11181;51.002;4.356;2024-03-08T03:24:48;24.33;;;15.60;;
22034;SDS011;11181;51.002;4.356;2024-03-08T03:27:16;25.10;;;16.23;;
22034;SDS011;11181;51.002;4.356;2024-03-08T03:29:46;28.10;;;17.13;;
22034;SDS011;11181;51.002;4.356;2024-03-08T03:32:14;22.43;;;15.10;;
22034;SDS011;11181;51.002;4.356;2024-03-08T03:34:43;26.00;;;16.37;;
22034;SDS011;11181;51.002;4.356;2024-03-08T03:37:10;25.30;;;16.60;;
22034;SDS011;11181;51.002;4.356;2024-03-08T03:39:38;24.30;;;15.60;;
22034;SDS011;11181;51.002;4.356;2024-03-08T03:42:13;26.93;;;16.73;;
22034;SDS011;11181;51.002;4.356;2024-03-08T03:44:41;25.20;;;16.47;;
22034;SDS011;11181;51.002;4.356;2024-03-08T03:47:11;25.93;;;16.23;;
22034;SDS011;11181;51.002;4.356;2024-03-08T03:49:39;26.00;;;16.80;;
22034;SDS011;11181;51.002;4.356;2024-03-08T03:52:06;23.20;;;15.47;;
22034;SDS011;11181;51.002;4.356;2024-03-08T03:54:33;24.70;;;15.63;;
22034;SDS011;11181;51.002;4.356;2024-03-08T03:57:01;29.77;;;16.27;;
22034;SDS011;11181;51.002;4.356;2024-03-08T03:59:28;23.13;;;15.37;;
22034;SDS011;11181;51.002;4.356;2024-03-08T04:01:55;25.17;;;16.03;;
22034;SDS011;11181;51.002;4.356;2024-03-08T04:04:23;28.30;;;16.90;;
22034;SDS011;11181;51.002;4.356;2024-03-08T04:06:50;22.93;;;15.63;;
22034;SDS011;11181;51.002;4.356;2024-03-08T04:09:17;26.87;;;15.57;;
22034;SDS011;11181;51.002;4.356;2024-03-08T04:11:47;22.00;;;14.67;;
22034;SDS011;11181;51.002;4.356;2024-03-08T04:14:15;23.83;;;15.53;;
22034;SDS011;11181;51.002;4.356;2024-03-08T04:16:42;29.40;;;16.37;;
22034;SDS011;11181;51.002;4.356;2024-03-08T04:19:09;27.73;;;16.87;;
22034;SDS011;11181;51.002;4.356;2024-03-08T04:21:37;27.53;;;16.40;;
22034;SDS011;11181;51.002;4.356;2024-03-08T04:24:04;22.93;;;15.10;;
22034;SDS011;11181;51.002;4.356;2024-03-08T04:26:32;24.83;;;15.37;;
22034;SDS011;11181;51.002;4.356;2024-03-08T04:28:59;22.50;;;15.43;;
22034;SDS011;11181;51.002;4.356;2024-03-08T04:31:26;25.43;;;16.63;;
22034;SDS011;11181;51.002;4.356;2024-03-08T04:33:53;28.70;;;17.20;;
22034;SDS011;11181;51.002;4.356;2024-03-08T04:36:20;25.93;;;17.20;;
22034;SDS011;11181;51.002;4.356;2024-03-08T04:38:49;25.77;;;16.07;;
22034;SDS011;11181;51.002;4.356;2024-03-08T04:41:17;25.00;;;15.10;;
22034;SDS011;11181;51.002;4.356;2024-03-08T04:43:45;25.77;;;16.70;;
22034;SDS011;11181;51.002;4.356;2024-03-08T04:46:12;23.03;;;15.70;;
22034;SDS011;11181;51.002;4.356;2024-03-08T04:48:39;26.37;;;17.37;;
22034;SDS011;11181;51.002;4.356;2024-03-08T04:51:07;27.13;;;16.47;;
22034;SDS011;11181;51.002;4.356;2024-03-08T04:53:34;24.53;;;16.23;;
22034;SDS011;11181;51.002;4.356;2024-03-08T04:56:03;27.67;;;16.70;;
22034;SDS011;11181;51.002;4.356;2024-03-08T04:58:32;22.57;;;15.93;;
22034;SDS011;11181;51.002;4.356;2024-03-08T05:00:59;24.53;;;15.77;;
22034;SDS011;11181;51.002;4.356;2024-03-08T05:03:26;23.20;;;15.33;;
22034;SDS011;11181;51.002;4.356;2024-03-08T05:05:55;26.27;;;16.03;;
22034;SDS011;11181;51.002;4.356;2024-03-08T05:08:22;26.63;;;16.83;;
22034;SDS011;11181;51.002;4.356;2024-03-08T05:10:49;23.30;;;14.83;;
22034;SDS011;11181;51.002;4.356;2024-03-08T05:13:17;27.57;;;16.97;;
22034;SDS011;11181;51.002;4.356;2024-03-08T05:15:47;24.70;;;16.37;;
22034;SDS011;11181;51.002;4.356;2024-03-08T05:18:15;25.10;;;15.57;;
22034;SDS011;11181;51.002;4.356;2024-03-08T05:20:42;24.40;;;16.30;;
22034;SDS011;11181;51.002;4.356;2024-03-08T05:23:09;24.87;;;15.60;;
22034;SDS011;11181;51.002;4.356;2024-03-08T05:25:36;26.67;;;16.63;;
22034;SDS011;11181;51.002;4.356;2024-03-08T05:28:03;23.33;;;15.53;;
22034;SDS011;11181;51.002;4.356;2024-03-08T05:30:32;24.27;;;15.67;;
22034;SDS011;11181;51.002;4.356;2024-03-08T05:32:59;26.93;;;15.43;;
22034;SDS011;11181;51.002;4.356;2024-03-08T05:35:26;28.13;;;16.63;;
22034;SDS011;11181;51.002;4.356;2024-03-08T05:37:53;24.53;;;16.57;;
22034;SDS011;11181;51.002;4.356;2024-03-08T05:40:21;32.67;;;16.67;;
22034;SDS011;11181;51.002;4.356;2024-03-08T05:42:48;24.17;;;16.30;;
22034;SDS011;11181;51.002;4.356;2024-03-08T05:45:15;26.60;;;17.53;;
22034;SDS011;11181;51.002;4.356;2024-03-08T05:47:43;29.00;;;17.27;;
22034;SDS011;11181;51.002;4.356;2024-03-08T05:50:11;26.87;;;17.03;;
22034;SDS011;11181;51.002;4.356;2024-03-08T05:52:38;25.67;;;15.87;;
22034;SDS011;11181;51.002;4.356;2024-03-08T05:55:05;26.03;;;16.70;;
22034;SDS011;11181;51.002;4.356;2024-03-08T05:57:33;27.83;;;15.63;;
22034;SDS011;11181;51.002;4.356;2024-03-08T06:00:03;25.93;;;16.00;;
22034;SDS011;11181;51.002;4.356;2024-03-08T06:02:30;25.03;;;15.47;;
22034;SDS011;11181;51.002;4.356;2024-03-08T06:04:59;23.00;;;15.17;;
22034;SDS011;11181;51.002;4.356;2024-03-08T06:07:27;37.33;;;17.47;;
22034;SDS011;11181;51.002;4.356;2024-03-08T06:09:55;28.17;;;16.50;;
22034;SDS011;11181;51.002;4.356;2024-03-08T06:12:22;24.30;;;14.83;;
22034;SDS011;11181;51.002;4.356;2024-03-08T06:14:53;26.03;;;16.60;;
22034;SDS011;11181;51.002;4.356;2024-03-08T06:17:20;27.23;;;17.67;;
22034;SDS011;11181;51.002;4.356;2024-03-08T06:19:50;29.87;;;17.07;;
22034;SDS011;11181;51.002;4.356;2024-03-08T06:22:19;24.97;;;16.37;;
22034;SDS011;11181;51.002;4.356;2024-03-08T06:24:46;27.37;;;16.80;;
22034;SDS011;11181;51.002;4.356;2024-03-08T06:27:13;26.87;;;15.47;;
22034;SDS011;11181;51.002;4.356;2024-03-08T06:29:40;23.47;;;16.27;;
22034;SDS011;11181;51.002;4.356;2024-03-08T06:32:07;28.57;;;16.73;;
22034;SDS011;11181;51.002;4.356;2024-03-08T06:34:34;22.00;;;14.83;;
22034;SDS011;11181;51.002;4.356;2024-03-08T06:37:01;24.40;;;16.03;;
22034;SDS011;11181;51.002;4.356;2024-03-08T06:39:29;26.13;;;15.47;;
22034;SDS011;11181;51.002;4.356;2024-03-08T06:41:57;26.17;;;16.83;;
22034;SDS011;11181;51.002;4.356;2024-03-08T06:44:25;24.60;;;15.60;;
22034;SDS011;11181;51.002;4.356;2024-03-08T06:46:52;27.20;;;15.60;;
22034;SDS011;11181;51.002;4.356;2024-03-08T06:49:19;28.37;;;17.20;;
22034;SDS011;11181;51.002;4.356;2024-03-08T06:51:46;29.37;;;16.30;;
22034;SDS011;11181;51.002;4.356;2024-03-08T06:54:13;26.67;;;16.03;;
22034;SDS011;11181;51.002;4.356;2024-03-08T06:56:41;25.27;;;14.80;;
22034;SDS011;11181;51.002;4.356;2024-03-08T06:59:08;26.80;;;16.50;;
22034;SDS011;11181;51.002;4.356;2024-03-08T07:01:35;25.37;;;15.70;;
22034;SDS011;11181;51.002;4.356;2024-03-08T07:04:03;27.60;;;15.20;;
22034;SDS011;11181;51.002;4.356;2024-03-08T07:06:31;24.63;;;15.90;;
22034;SDS011;11181;51.002;4.356;2024-03-08T07:08:59;26.40;;;16.40;;
22034;SDS011;11181;51.002;4.356;2024-03-08T07:11:26;24.97;;;14.90;;
22034;SDS011;11181;51.002;4.356;2024-03-08T07:13:55;22.03;;;15.47;;
22034;SDS011;11181;51.002;4.356;2024-03-08T07:16:23;22.27;;;13.90;;
22034;SDS011;11181;51.002;4.356;2024-03-08T07:18:51;25.47;;;16.90;;
22034;SDS011;11181;51.002;4.356;2024-03-08T07:21:18;22.07;;;13.63;;
22034;SDS011;11181;51.002;4.356;2024-03-08T07:23:46;23.73;;;15.20;;
22034;SDS011;11181;51.002;4.356;2024-03-08T07:26:19;25.97;;;14.83;;
22034;SDS011;11181;51.002;4.356;2024-03-08T07:28:47;27.80;;;16.80;;
22034;SDS011;11181;51.002;4.356;2024-03-08T07:31:15;24.80;;;14.90;;
22034;SDS011;11181;51.002;4.356;2024-03-08T07:33:52;22.17;;;15.30;;
22034;SDS011;11181;51.002;4.356;2024-03-08T07:36:19;25.93;;;15.83;;
22034;SDS011;11181;51.002;4.356;2024-03-08T07:38:47;23.20;;;13.67;;
22034;SDS011;11181;51.002;4.356;2024-03-08T07:41:14;24.30;;;15.17;;
22034;SDS011;11181;51.002;4.356;2024-03-08T07:43:42;26.03;;;15.53;;
22034;SDS011;11181;51.002;4.356;2024-03-08T07:46:10;30.27;;;17.07;;
22034;SDS011;11181;51.002;4.356;2024-03-08T07:48:39;24.53;;;15.10;;
22034;SDS011;11181;51.002;4.356;2024-03-08T07:51:08;22.83;;;15.80;;
22034;SDS011;11181;51.002;4.356;2024-03-08T07:53:37;27.30;;;15.13;;
22034;SDS011;11181;51.002;4.356;2024-03-08T07:56:06;20.73;;;13.17;;
22034;SDS011;11181;51.002;4.356;2024-03-08T07:58:36;25.27;;;15.17;;
22034;SDS011;11181;51.002;4.356;2024-03-08T08:01:05;24.93;;;15.20;;
22034;SDS011;11181;51.002;4.356;2024-03-08T08:03:35;23.40;;;14.20;;
22034;SDS011;11181;51.002;4.356;2024-03-08T08:06:04;23.10;;;14.03;;
22034;SDS011;11181;51.002;4.356;2024-03-08T08:08:32;21.90;;;14.83;;
22034;SDS011;11181;51.002;4.356;2024-03-08T08:10:59;25.70;;;14.20;;
22034;SDS011;11181;51.002;4.356;2024-03-08T08:13:27;23.27;;;14.40;;
22034;SDS011;11181;51.002;4.356;2024-03-08T08:15:57;29.27;;;15.07;;
22034;SDS011;11181;51.002;4.356;2024-03-08T08:18:26;25.37;;;14.93;;
22034;SDS011;11181;51.002;4.356;2024-03-08T08:20:54;23.93;;;14.83;;
22034;SDS011;11181;51.002;4.356;2024-03-08T08:23:23;23.93;;;13.90;;
22034;SDS011;11181;51.002;4.356;2024-03-08T08:25:50;25.17;;;15.57;;
22034;SDS011;11181;51.002;4.356;2024-03-08T08:28:17;25.23;;;14.67;;
22034;SDS011;11181;51.002;4.356;2024-03-08T08:30:44;23.70;;;14.37;;
22034;SDS011;11181;51.002;4.356;2024-03-08T08:33:11;19.83;;;13.20;;
22034;SDS011;11181;51.002;4.356;2024-03-08T08:35:38;24.27;;;13.50;;
22034;SDS011;11181;51.002;4.356;2024-03-08T08:38:05;24.33;;;13.90;;
22034;SDS011;11181;51.002;4.356;2024-03-08T08:40:35;22.70;;;14.53;;
22034;SDS011;11181;51.002;4.356;2024-03-08T08:43:02;25.13;;;13.97;;
22034;SDS011;11181;51.002;4.356;2024-03-08T08:45:32;20.80;;;13.83;;
22034;SDS011;11181;51.002;4.356;2024-03-08T08:47:59;24.13;;;14.17;;
22034;SDS011;11181;51.002;4.356;2024-03-08T08:50:26;24.63;;;13.27;;
22034;SDS011;11181;51.002;4.356;2024-03-08T08:52:53;20.83;;;12.83;;
22034;SDS011;11181;51.002;4.356;2024-03-08T08:55:20;23.50;;;13.77;;
22034;SDS011;11181;51.002;4.356;2024-03-08T08:57:51;20.87;;;12.73;;
22034;SDS011;11181;51.002;4.356;2024-03-08T09:00:19;23.13;;;13.20;;
22034;SDS011;11181;51.002;4.356;2024-03-08T09:02:46;21.50;;;14.13;;
22034;SDS011;11181;51.002;4.356;2024-03-08T09:05:14;21.90;;;13.13;;
22034;SDS011;11181;51.002;4.356;2024-03-08T09:07:42;19.73;;;12.63;;
22034;SDS011;11181;51.002;4.356;2024-03-08T09:10:10;19.63;;;12.83;;
22034;SDS011;11181;51.002;4.356;2024-03-08T09:12:39;22.07;;;12.57;;
22034;SDS011;11181;51.002;4.356;2024-03-08T09:15:08;22.80;;;13.40;;
22034;SDS011;11181;51.002;4.356;2024-03-08T09:17:36;18.03;;;12.70;;
22034;SDS011;11181;51.002;4.356;2024-03-08T09:20:05;18.93;;;12.73;;
22034;SDS011;11181;51.002;4.356;2024-03-08T09:22:33;19.27;;;12.47;;
22034;SDS011;11181;51.002;4.356;2024-03-08T09:25:01;18.40;;;12.23;;
22034;SDS011;11181;51.002;4.356;2024-03-08T09:27:30;22.60;;;12.67;;
22034;SDS011;11181;51.002;4.356;2024-03-08T09:29:57;20.13;;;13.10;;
22034;SDS011;11181;51.002;4.356;2024-03-08T09:32:25;17.93;;;11.67;;
22034;SDS011;11181;51.002;4.356;2024-03-08T09:34:52;19.37;;;11.73;;
22034;SDS011;11181;51.002;4.356;2024-03-08T09:37:21;19.83;;;12.33;;
22034;SDS011;11181;51.002;4.356;2024-03-08T09:39:49;18.20;;;12.20;;
22034;SDS011;11181;51.002;4.356;2024-03-08T09:42:16;18.50;;;12.13;;
22034;SDS011;11181;51.002;4.356;2024-03-08T09:44:44;17.03;;;11.70;;
22034;SDS011;11181;51.002;4.356;2024-03-08T09:47:12;19.33;;;11.73;;
22034;SDS011;11181;51.002;4.356;2024-03-08T09:49:42;19.60;;;11.73;;
22034;SDS011;11181;51.002;4.356;2024-03-08T09:52:09;20.93;;;11.67;;
22034;SDS011;11181;51.002;4.356;2024-03-08T09:54:37;17.57;;;10.70;;
22034;SDS011;11181;51.002;4.356;2024-03-08T09:57:05;18.37;;;11.67;;
22034;SDS011;11181;51.002;4.356;2024-03-08T09:59:34;19.33;;;12.20;;
22034;SDS011;11181;51.002;4.356;2024-03-08T10:02:13;18.47;;;11.20;;
22034;SDS011;11181;51.002;4.356;2024-03-08T10:04:43;16.33;;;10.80;;
22034;SDS011;11181;51.002;4.356;2024-03-08T10:07:12;16.33;;;11.00;;
22034;SDS011;11181;51.002;4.356;2024-03-08T10:09:39;18.67;;;11.67;;
22034;SDS011;11181;51.002;4.356;2024-03-08T10:12:12;14.80;;;10.97;;
22034;SDS011;11181;51.002;4.356;2024-03-08T10:14:40;16.90;;;10.33;;
22034;SDS011;11181;51.002;4.356;2024-03-08T10:17:08;17.07;;;11.20;;
22034;SDS011;11181;51.002;4.356;2024-03-08T10:19:35;20.57;;;11.87;;
22034;SDS011;11181;51.002;4.356;2024-03-08T10:22:05;16.73;;;10.63;;
22034;SDS011;11181;51.002;4.356;2024-03-08T10:24:33;16.33;;;10.87;;
22034;SDS011;11181;51.002;4.356;2024-03-08T10:27:00;17.33;;;11.77;;
22034;SDS011;11181;51.002;4.356;2024-03-08T10:29:30;15.47;;;10.20;;
22034;SDS011;11181;51.002;4.356;2024-03-08T10:31:58;17.43;;;11.07;;
22034;SDS011;11181;51.002;4.356;2024-03-08T10:34:25;15.10;;;10.27;;
22034;SDS011;11181;51.002;4.356;2024-03-08T10:36:52;12.67;;;9.10;;
22034;SDS011;11181;51.002;4.356;2024-03-08T10:39:23;16.67;;;10.50;;
22034;SDS011;11181;51.002;4.356;2024-03-08T10:41:53;15.33;;;10.00;;
22034;SDS011;11181;51.002;4.356;2024-03-08T10:44:31;17.37;;;11.40;;
22034;SDS011;11181;51.002;4.356;2024-03-08T10:47:09;14.33;;;10.07;;
22034;SDS011;11181;51.002;4.356;2024-03-08T10:49:44;18.27;;;10.83;;
22034;SDS011;11181;51.002;4.356;2024-03-08T10:52:18;13.67;;;9.97;;
22034;SDS011;11181;51.002;4.356;2024-03-08T10:54:48;13.63;;;9.73;;
22034;SDS011;11181;51.002;4.356;2024-03-08T10:57:17;13.23;;;9.73;;
22034;SDS011;11181;51.002;4.356;2024-03-08T10:59:46;12.93;;;9.50;;
22034;SDS011;11181;51.002;4.356;2024-03-08T11:02:14;14.67;;;10.47;;
22034;SDS011;11181;51.002;4.356;2024-03-08T11:04:47;13.67;;;9.87;;
22034;SDS011;11181;51.002;4.356;2024-03-08T11:07:15;16.07;;;10.33;;
22034;SDS011;11181;51.002;4.356;2024-03-08T11:09:44;12.27;;;9.30;;
22034;SDS011;11181;51.002;4.356;2024-03-08T11:12:24;16.37;;;10.13;;
22034;SDS011;11181;51.002;4.356;2024-03-08T11:14:54;16.50;;;10.23;;
22034;SDS011;11181;51.002;4.356;2024-03-08T11:17:26;18.00;;;10.33;;
22034;SDS011;11181;51.002;4.356;2024-03-08T11:20:10;15.13;;;9.87;;
22034;SDS011;11181;51.002;4.356;2024-03-08T11:22:41;17.27;;;10.53;;
22034;SDS011;11181;51.002;4.356;2024-03-08T11:28:07;16.73;;;9.97;;
22034;SDS011;11181;51.002;4.356;2024-03-08T11:30:40;15.43;;;10.20;;
22034;SDS011;11181;51.002;4.356;2024-03-08T11:33:09;14.03;;;10.97;;
22034;SDS011;11181;51.002;4.356;2024-03-08T11:35:38;13.03;;;9.83;;
22034;SDS011;11181;51.002;4.356;2024-03-08T11:38:07;16.10;;;10.93;;
22034;SDS011;11181;51.002;4.356;2024-03-08T11:40:35;15.77;;;9.93;;
22034;SDS011;11181;51.002;4.356;2024-03-08T11:43:03;13.77;;;9.97;;
22034;SDS011;11181;51.002;4.356;2024-03-08T11:45:34;14.80;;;10.73;;
22034;SDS011;11181;51.002;4.356;2024-03-08T11:48:02;15.10;;;10.03;;
22034;SDS011;11181;51.002;4.356;2024-03-08T11:50:30;12.57;;;9.70;;
22034;SDS011;11181;51.002;4.356;2024-03-08T11:53:01;13.73;;;9.43;;
22034;SDS011;11181;51.002;4.356;2024-03-08T11:55:30;15.67;;;10.67;;
22034;SDS011;11181;51.002;4.356;2024-03-08T11:58:01;16.07;;;10.83;;
22034;SDS011;11181;51.002;4.356;2024-03-08T12:00:29;13.40;;;9.30;;
22034;SDS011;11181;51.002;4.356;2024-03-08T12:03:05;15.50;;;9.53;;
22034;SDS011;11181;51.002;4.356;2024-03-08T12:05:33;16.23;;;10.80;;
22034;SDS011;11181;51.002;4.356;2024-03-08T12:08:00;14.57;;;9.67;;
22034;SDS011;11181;51.002;4.356;2024-03-08T12:10:30;15.20;;;10.50;;
22034;SDS011;11181;51.002;4.356;2024-03-08T12:12:57;14.53;;;10.17;;
22034;SDS011;11181;51.002;4.356;2024-03-08T12:15:29;15.07;;;11.07;;
22034;SDS011;11181;51.002;4.356;2024-03-08T12:17:59;16.53;;;10.33;;
22034;SDS011;11181;51.002;4.356;2024-03-08T12:20:28;15.10;;;11.60;;
22034;SDS011;11181;51.002;4.356;2024-03-08T12:22:56;14.47;;;10.90;;
22034;SDS011;11181;51.002;4.356;2024-03-08T12:25:26;14.67;;;10.73;;
22034;SDS011;11181;51.002;4.356;2024-03-08T12:27:56;15.30;;;10.57;;
22034;SDS011;11181;51.002;4.356;2024-03-08T12:30:35;13.77;;;10.27;;
22034;SDS011;11181;51.002;4.356;2024-03-08T12:33:12;16.20;;;10.00;;
22034;SDS011;11181;51.002;4.356;2024-03-08T12:35:41;13.97;;;10.27;;
22034;SDS011;11181;51.002;4.356;2024-03-08T12:38:19;15.17;;;9.87;;
22034;SDS011;11181;51.002;4.356;2024-03-08T12:40:50;15.47;;;10.13;;
22034;SDS011;11181;51.002;4.356;2024-03-08T12:43:22;13.53;;;9.67;;
22034;SDS011;11181;51.002;4.356;2024-03-08T12:45:49;11.60;;;8.73;;
22034;SDS011;11181;51.002;4.356;2024-03-08T12:48:16;14.00;;;11.13;;
22034;SDS011;11181;51.002;4.356;2024-03-08T12:50:47;13.07;;;9.63;;
22034;SDS011;11181;51.002;4.356;2024-03-08T12:53:16;18.63;;;11.07;;
22034;SDS011;11181;51.002;4.356;2024-03-08T12:55:43;14.60;;;10.03;;
22034;SDS011;11181;51.002;4.356;2024-03-08T12:58:10;15.57;;;10.17;;
22034;SDS011;11181;51.002;4.356;2024-03-08T13:00:37;12.20;;;8.90;;
22034;SDS011;11181;51.002;4.356;2024-03-08T13:03:08;15.47;;;9.80;;
22034;SDS011;11181;51.002;4.356;2024-03-08T13:05:36;14.37;;;10.10;;
22034;SDS011;11181;51.002;4.356;2024-03-08T13:08:06;13.77;;;10.03;;
22034;SDS011;11181;51.002;4.356;2024-03-08T13:10:37;16.23;;;9.80;;
22034;SDS011;11181;51.002;4.356;2024-03-08T13:13:04;14.20;;;9.83;;
22034;SDS011;11181;51.002;4.356;2024-03-08T13:15:31;12.33;;;9.20;;
22034;SDS011;11181;51.002;4.356;2024-03-08T13:17:58;13.57;;;9.70;;
22034;SDS011;11181;51.002;4.356;2024-03-08T13:20:26;13.40;;;9.83;;
22034;SDS011;11181;51.002;4.356;2024-03-08T13:22:53;16.87;;;11.07;;
22034;SDS011;11181;51.002;4.356;2024-03-08T13:25:22;15.27;;;10.80;;
22034;SDS011;11181;51.002;4.356;2024-03-08T13:27:49;14.40;;;10.50;;
22034;SDS011;11181;51.002;4.356;2024-03-08T13:30:19;14.03;;;10.43;;
22034;SDS011;11181;51.002;4.356;2024-03-08T13:32:51;13.00;;;10.00;;
22034;SDS011;11181;51.002;4.356;2024-03-08T13:35:19;13.63;;;9.57;;
22034;SDS011;11181;51.002;4.356;2024-03-08T13:37:49;14.37;;;9.33;;
22034;SDS011;11181;51.002;4.356;2024-03-08T13:40:17;13.90;;;9.87;;
22034;SDS011;11181;51.002;4.356;2024-03-08T13:42:46;14.00;;;10.17;;
22034;SDS011;11181;51.002;4.356;2024-03-08T13:45:15;17.10;;;10.40;;
22034;SDS011;11181;51.002;4.356;2024-03-08T13:47:49;15.30;;;10.23;;
22034;SDS011;11181;51.002;4.356;2024-03-08T13:50:16;14.30;;;10.67;;
22034;SDS011;11181;51.002;4.356;2024-03-08T13:52:46;14.57;;;10.27;;
22034;SDS011;11181;51.002;4.356;2024-03-08T13:55:16;13.07;;;9.77;;
22034;SDS011;11181;51.002;4.356;2024-03-08T13:57:43;13.67;;;9.87;;
22034;SDS011;11181;51.002;4.356;2024-03-08T14:00:13;14.83;;;10.33;;
22034;SDS011;11181;51.002;4.356;2024-03-08T14:02:41;17.03;;;10.10;;
22034;SDS011;11181;51.002;4.356;2024-03-08T14:05:08;13.60;;;9.63;;
22034;SDS011;11181;51.002;4.356;2024-03-08T14:07:37;12.97;;;9.63;;
22034;SDS011;11181;51.002;4.356;2024-03-08T14:10:04;16.70;;;10.70;;
22034;SDS011;11181;51.002;4.356;2024-03-08T14:12:34;12.53;;;8.67;;
22034;SDS011;11181;51.002;4.356;2024-03-08T14:15:03;14.10;;;9.93;;
22034;SDS011;11181;51.002;4.356;2024-03-08T14:17:33;13.60;;;9.00;;
22034;SDS011;11181;51.002;4.356;2024-03-08T14:20:00;15.67;;;9.93;;
22034;SDS011;11181;51.002;4.356;2024-03-08T14:22:29;15.43;;;10.40;;
22034;SDS011;11181;51.002;4.356;2024-03-08T14:24:56;16.27;;;10.07;;
22034;SDS011;11181;51.002;4.356;2024-03-08T14:27:23;15.63;;;10.03;;
22034;SDS011;11181;51.002;4.356;2024-03-08T14:29:52;15.10;;;10.43;;
22034;SDS011;11181;51.002;4.356;2024-03-08T14:32:20;14.23;;;9.83;;
22034;SDS011;11181;51.002;4.356;2024-03-08T14:34:49;15.40;;;9.90;;
22034;SDS011;11181;51.002;4.356;2024-03-08T14:37:16;14.73;;;9.40;;